Avondale, CO

4:24 AM MDT on September 22, 2014 (GMT -0600)
Pueblo Memorial | Change Station
CLOSE
Current Station
Airport
Location: Pueblo,
Elevation: 4721 ft
Nearby Weather Stations

Elev 4721 ft 38.29 °N, 104.50 °W | Updated 31 minutes ago

Overcast
Overcast
61 °F
Feels Like 61 °F
N
8
Wind Variable Wind from ESE

Today
High -- | Low -- °F
--% Chance of Precip.
Yesterday
High -- | Low -- °F
Precip. -- in
6:45 AM 6:54 PM
Waning Crescent, 3% visible
Pressure 30.10 in
Visibility 10.0 miles
Clouds Overcast 11000 ft
Dew Point 47 °F
Humidity 60%
Rainfall 0.00 in
Snow Depth 0 in , 0 in , 0 in
UV 0 out of 12
Pollen 4.50 out of 12
Air Quality Not available.
Flu Activity Not available.
METAR KPUB 220953Z AUTO 11007KT 10SM OVC110 16/08 A3025 RMK AO2 SLP191 T01610083

More Conditions Fewer Conditions

Pressure 30.10 in
Visibility 10.0 miles
Clouds Overcast 11000 ft
Dew Point 47 °F
Humidity 60%
Rainfall 0.00 in
Snow Depth 0 in , 0 in , 0 in
UV 0 out of 12
Pollen 4.50 out of 12
Air Quality Not available.
Flu Activity Not available.
METAR KPUB 220953Z AUTO 11007KT 10SM OVC110 16/08 A3025 RMK AO2 SLP191 T01610083

More Conditions Fewer Conditions

10-Day Weather Forecast

Almanac

Astronomy

Sep. 22, 2014 Rise Set
Actual Time 6:45 AM MDT 6:54 PM MDT
Civil Twilight 6:19 AM MDT 7:20 PM MDT
Nautical Twilight 5:48 AM MDT 7:51 PM MDT
Astronomical Twilight 5:17 AM MDT 8:22 PM MDT
Moon 5:17 AM MDT 6:02 PM MDT
Length of Visible Light 13h 01m
Length of Day
12h 09m
Tomorrow will be 2m 26s shorter.
Waning Crescent, 3% of the Moon is Illuminated
Today
Waning Crescent
Sep 24
New
Oct 1
First Quarter
Oct 8
Full
Oct 15
Last Quarter

Today's Extremes

State Highs State Lows

Community

WunderPhotos

Upload Photos

1,755,406 photos uploaded!

Nearby

Snow Depth

Station Depth Elevation
Vallecito 0 in 10880 ft
Columbine 1 in 9160 ft
Middle Fork Camp 0 in 9000 ft
Willow Park 0 in 10700 ft
McClure Pass 0 in 9500 ft

Earthquake Activity

City Distance Mag. Time & Date
No recent earthquake activity has been reported nearby.
Minimum magnitude displayed is 2.5.

Coastal Water Temperatures

Place Temperature
No Stations Reporting

Nearby Weather Stations